Terminal Aerodrome Forecast
Issued by NWS

Home | Current Version | Previous Version | Text Only | Print | Product List | Glossary On
Versions: 1 2 3 4 5 6 7 8 9 10 11 12 13 14 15 16 17 18 19 20 21 22 23 24 25 26 27 28 29 30 31
000
FTUS45 KSLC 031736
TAFENV
TAF
KENV 031736Z 0318/0418 16016KT P6SM SCT200
     FM031900 18016G24KT P6SM SCT100 SCT200
     FM032300 24020G30KT P6SM SCT100 SCT200
     FM040300 24009G18KT P6SM SCT100 SCT200
     FM040500 33007KT P6SM SCT100 SCT200
      AMD LTD TO CLD VIS AND WIND=

USA.gov is the U.S. government's official web portal to all federal, state and local government web resources and services.